Terminal Aerodrome Forecast
Issued by NWS Portland, OR

Home | Current Version | Previous Version | Text Only | Print | Product List | Glossary On
Versions: 1 2 3 4 5 6 7 8 9 10 11 12 13 14 15 16 17 18 19 20 21 22 23 24 25 26 27 28 29 30
000
FTUS46 KPQR 171739
TAFHIO
TAF
KHIO 171739Z 1718/1818 00000KT P6SM VCSH OVC060
     FM172100 VRB02KT 4SM -RA BR BKN025 OVC050
     FM180500 00000KT 4SM BR SCT004 BKN030=

USA.gov is the U.S. government's official web portal to all federal, state and local government web resources and services.